Minot AFB, North Dakota
Current Conditions -  °F | °C
As of 6:58 AM on Friday 28 Nov 2014 (Local Time) from KMIB Reporting Station
Light Snow Light Snow  
Wind Chill: -7°   Ceiling: 200
Heat Index:   Visibility: 10mi
Dew Point:   Wind: 12mph
Humidity: 88%   Direction: 100°E
Pressure: 29.83"   Gusts: NA
Location:  48.42°N, 101.33°W
Report Text: KMIB 281258Z AUTO 10010KT 10SM -SN OVC002 M13/M15 A2983 RMK AO2 VIS 3/4 RWY29 SNB1250E1252B1254 SLP143 P0000 T11341150
Loading
Personal Weather Stations






























Interactive Weather Map New forecast layout! Learn more

10-Day Weather Forecast

Advertisements
Track Severe Weather on mobile